Time;durP1;ratioP1;P1;durP2;ratioP2;P2;SDS_P1;SDS_P2;PMS_P1;PMS_P2;Temp;Humidity;BMP_temperature;BMP_pressure;BME280_temperature;BME280_humidity;BME280_pressure;Samples;Min_cycle;Max_cycle;Signal;HPM_P1;HPM_P2
2022/11/09 00:01:31;;;;;;;;;38.75;35.50;;;;;15.57;59.17;99776.88;5034054;28;8994;-81
2022/11/09 00:04:01;;;;;;;;;49.75;38.50;;;;;15.54;59.32;99777.81;5033970;28;8960;-80
2022/11/09 00:06:32;;;;;;;;;46.25;39.25;;;;;15.51;59.27;99767.34;5051261;28;8938;-80
2022/11/09 00:09:03;;;;;;;;;43.75;37.00;;;;;15.45;59.51;99770.06;5052741;28;9700;-80
2022/11/09 00:11:36;;;;;;;;;49.75;40.75;;;;;15.42;59.85;99772.75;5054804;28;8865;-81
2022/11/09 00:14:05;;;;;;;;;47.00;38.75;;;;;15.46;59.97;99770.94;5053376;28;8865;-81
2022/11/09 00:16:33;;;;;;;;;41.50;35.75;;;;;15.41;60.54;99778.91;5053450;28;8841;-80
2022/11/09 00:19:02;;;;;;;;;44.25;36.75;;;;;15.42;60.53;99772.75;5052856;28;8848;-80
2022/11/09 00:21:32;;;;;;;;;42.75;36.50;;;;;15.48;60.30;99771.78;5050225;28;8873;-79
2022/11/09 00:24:01;;;;;;;;;54.00;40.00;;;;;15.42;60.24;99767.50;5033721;28;8852;-80
2022/11/09 00:26:29;;;;;;;;;45.25;37.75;;;;;15.55;59.90;99773.41;5037285;28;8863;-81
2022/11/09 00:29:00;;;;;;;;;49.00;37.00;;;;;15.50;60.27;99770.88;5048191;28;8863;-80
2022/11/09 00:31:28;;;;;;;;;39.50;34.25;;;;;15.35;61.23;99764.13;5041250;28;8879;-78
2022/11/09 00:33:57;;;;;;;;;45.50;37.50;;;;;15.42;61.06;99762.22;5035283;28;8844;-80
2022/11/09 00:36:29;;;;;;;;;47.75;36.50;;;;;15.46;60.92;99757.78;5012109;28;8855;-78
2022/11/09 00:39:01;;;;;;;;;46.25;37.25;;;;;15.40;61.37;99757.00;5015858;28;8856;-80
2022/11/09 00:41:29;;;;;;;;;45.25;36.50;;;;;15.29;61.57;99753.72;5012718;28;8879;-80
2022/11/09 00:43:58;;;;;;;;;40.25;36.50;;;;;15.16;62.53;99755.66;5031314;28;9841;-83
2022/11/09 00:46:27;;;;;;;;;39.00;33.80;;;;;15.32;61.96;99748.38;5032127;28;8938;-80
2022/11/09 00:48:56;;;;;;;;;45.00;33.75;;;;;15.27;61.99;99746.72;5031600;28;8961;-80
2022/11/09 00:51:25;;;;;;;;;38.75;34.25;;;;;15.31;61.75;99743.16;5048208;28;8985;-82
2022/11/09 00:53:56;;;;;;;;;43.50;37.50;;;;;15.33;61.48;99750.13;5047998;28;8857;-82
2022/11/09 00:56:26;;;;;;;;;49.50;40.00;;;;;15.33;61.45;99739.63;4979126;28;8879;-81
2022/11/09 00:58:55;;;;;;;;;31.75;29.25;;;;;15.41;61.38;99752.63;5028594;28;8851;-84
2022/11/09 01:01:24;;;;;;;;;46.50;33.75;;;;;15.49;61.09;99749.88;5011176;28;8847;-81
2022/11/09 01:03:53;;;;;;;;;39.75;35.75;;;;;15.37;61.06;99750.94;4979162;28;8859;-80
2022/11/09 01:06:24;;;;;;;;;39.50;36.00;;;;;15.36;61.45;99747.44;4994967;28;8977;-80
2022/11/09 01:08:53;;;;;;;;;42.75;36.00;;;;;15.25;62.30;99745.88;5011401;28;8855;-82
2022/11/09 01:11:23;;;;;;;;;35.25;31.50;;;;;15.37;61.53;99749.19;5013024;28;8873;-80
2022/11/09 01:13:58;;;;;;;;;38.00;34.00;;;;;15.42;61.46;99749.09;5044791;28;8837;-78
2022/11/09 01:16:27;;;;;;;;;40.25;35.50;;;;;15.49;61.35;99755.13;5065464;28;8891;-80
2022/11/09 01:18:58;;;;;;;;;37.00;35.00;;;;;15.48;61.29;99753.38;5062191;28;9002;-79
2022/11/09 01:21:28;;;;;;;;;37.50;35.25;;;;;15.59;60.44;99761.94;5033383;28;8965;-79
2022/11/09 01:24:00;;;;;;;;;38.50;34.75;;;;;15.62;60.70;99753.16;5066570;28;8871;-80
2022/11/09 01:26:29;;;;;;;;;39.00;33.80;;;;;15.66;60.48;99745.16;5066943;28;8865;-81
2022/11/09 01:28:59;;;;;;;;;37.40;34.80;;;;;15.65;60.10;99743.47;5057072;28;8862;-81
2022/11/09 01:31:28;;;;;;;;;41.00;35.80;;;;;15.68;59.95;99747.78;5017665;28;9701;-81
2022/11/09 01:33:57;;;;;;;;;41.20;36.00;;;;;15.64;60.37;99743.47;5036677;28;8852;-80
2022/11/09 01:36:25;;;;;;;;;42.00;38.00;;;;;15.42;61.02;99741.22;5067731;28;8952;-82
2022/11/09 01:38:54;;;;;;;;;37.40;33.60;;;;;15.37;61.06;99740.44;5001987;28;8977;-81
2022/11/09 01:41:26;;;;;;;;;37.40;31.80;;;;;15.26;61.84;99745.88;5066428;28;8978;-80
2022/11/09 01:44:10;;;;;;;;;40.60;34.60;;;;;15.41;61.57;99736.88;5049608;28;8885;-81
2022/11/09 01:46:47;;;;;;;;;42.20;34.20;;;;;15.35;61.56;99734.34;5066416;28;8864;-80
2022/11/09 01:49:24;;;;;;;;;37.00;29.20;;;;;15.47;60.73;99734.13;5050001;28;8847;-82
2022/11/09 01:51:57;;;;;;;;;41.25;36.75;;;;;15.45;60.68;99738.53;5049899;28;8860;-80
2022/11/09 01:54:29;;;;;;;;;41.25;36.50;;;;;15.57;60.42;99738.31;5066361;28;8836;-83
2022/11/09 01:57:03;;;;;;;;;45.60;36.40;;;;;15.63;60.01;99739.09;5050673;28;8860;-81
2022/11/09 01:59:42;;;;;;;;;46.50;39.00;;;;;15.70;60.13;99735.47;5044114;28;8867;-81
2022/11/09 02:02:11;;;;;;;;;41.50;36.00;;;;;15.65;59.74;99735.56;5041680;28;8870;-81
2022/11/09 02:04:49;;;;;;;;;42.60;36.80;;;;;15.69;59.85;99737.25;5048108;28;8857;-81
2022/11/09 02:07:19;;;;;;;;;41.25;36.00;;;;;15.70;59.98;99738.09;5057776;28;8979;-82
2022/11/09 02:09:52;;;;;;;;;37.00;34.00;;;;;15.71;60.12;99738.06;5049276;28;8853;-80
2022/11/09 02:12:22;;;;;;;;;37.60;34.00;;;;;15.66;60.32;99733.81;5029236;28;9617;-82
2022/11/09 02:14:54;;;;;;;;;38.40;33.40;;;;;15.59;60.68;99743.53;5028568;28;8859;-81
2022/11/09 02:17:23;;;;;;;;;38.60;35.80;;;;;15.42;61.42;99735.09;5044880;28;8986;-82
2022/11/09 02:19:52;;;;;;;;;37.80;33.60;;;;;15.58;60.59;99740.06;5045695;28;8883;-83
2022/11/09 02:22:22;;;;;;;;;41.80;35.20;;;;;15.66;60.60;99741.69;5054273;28;9559;-81
2022/11/09 02:24:51;;;;;;;;;43.50;38.00;;;;;15.62;60.03;99737.38;5029430;28;8913;-81
2022/11/09 02:27:24;;;;;;;;;43.25;36.75;;;;;15.64;59.96;99735.59;5054973;28;8871;-84
2022/11/09 02:29:55;;;;;;;;;39.25;34.50;;;;;15.61;60.18;99736.50;5044554;28;8860;-84
2022/11/09 02:32:28;;;;;;;;;39.40;36.00;;;;;15.68;60.08;99739.91;5028535;28;9596;-81
2022/11/09 02:34:59;;;;;;;;;38.75;36.00;;;;;15.69;59.66;99738.97;5048732;28;8938;-81
2022/11/09 02:37:31;;;;;;;;;29.00;28.80;;;;;15.70;59.96;99740.72;5047545;28;8986;-82
2022/11/09 02:40:03;;;;;;;;;42.00;36.25;;;;;15.62;59.92;99742.66;5030922;28;8873;-80
2022/11/09 02:42:32;;;;;;;;;36.40;33.60;;;;;15.62;60.28;99742.66;5047293;28;9027;-81
2022/11/09 02:45:00;;;;;;;;;41.60;36.00;;;;;15.52;61.00;99742.81;5048350;28;8872;-82
2022/11/09 02:47:29;;;;;;;;;29.80;25.80;;;;;15.51;61.10;99742.81;5013816;28;8872;-80
2022/11/09 02:49:58;;;;;;;;;33.00;31.20;;;;;15.48;61.21;99743.75;5009931;28;8859;-81
2022/11/09 02:52:29;;;;;;;;;37.80;33.80;;;;;15.39;62.00;99736.88;5027232;28;8864;-81
2022/11/09 02:54:57;;;;;;;;;40.20;36.40;;;;;15.43;61.62;99748.22;5027136;28;8885;-81
2022/11/09 02:57:26;;;;;;;;;40.80;35.60;;;;;15.38;61.98;99742.16;5022600;28;8848;-81
2022/11/09 02:59:55;;;;;;;;;41.00;33.00;;;;;15.47;61.70;99747.25;5027265;28;8867;-79
2022/11/09 03:02:23;;;;;;;;;37.40;33.20;;;;;15.50;61.64;99739.34;5027367;28;8867;-82
2022/11/09 03:04:52;;;;;;;;;39.60;33.40;;;;;15.60;61.22;99734.78;4993928;28;8857;-80
2022/11/09 03:07:21;;;;;;;;;42.60;36.20;;;;;15.66;60.79;99739.06;4994642;28;8973;-81
2022/11/09 03:09:52;;;;;;;;;38.40;33.40;;;;;15.68;60.68;99732.88;4978651;28;8864;-80
2022/11/09 03:12:29;;;;;;;;;39.50;34.00;;;;;15.71;60.83;99740.72;5042654;28;8851;-80
2022/11/09 03:15:07;;;;;;;;;41.60;35.60;;;;;15.69;60.80;99737.25;5045312;28;8871;-81
2022/11/09 03:17:39;;;;;;;;;42.80;33.00;;;;;15.69;60.53;99737.25;5043191;28;8863;-81
2022/11/09 03:20:09;;;;;;;;;36.40;34.20;;;;;15.68;60.91;99737.25;5054956;28;8863;-79
2022/11/09 03:22:39;;;;;;;;;38.60;35.40;;;;;15.59;61.10;99741.81;4957822;28;8863;-79
2022/11/09 03:25:10;;;;;;;;;41.75;35.75;;;;;15.64;61.12;99741.72;5010719;28;8949;-81
2022/11/09 03:27:39;;;;;;;;;39.00;35.60;;;;;15.61;61.27;99736.50;4993229;28;10069;-80
2022/11/09 03:30:09;;;;;;;;;42.75;36.75;;;;;15.55;61.39;99745.34;5035228;28;8844;-80
2022/11/09 03:32:39;;;;;;;;;34.80;33.00;;;;;15.56;61.20;99746.25;5010040;28;8851;-80
2022/11/09 03:35:09;;;;;;;;;38.60;33.40;;;;;15.57;61.30;99742.72;5010556;28;8944;-81
2022/11/09 03:37:38;;;;;;;;;34.80;32.00;;;;;15.66;61.02;99739.06;5026352;28;8953;-80
2022/11/09 03:40:07;;;;;;;;;40.50;34.50;;;;;15.66;60.78;99750.44;4977123;28;9659;-79
2022/11/09 03:42:42;;;;;;;;;35.80;31.60;;;;;15.65;60.96;99746.09;5029677;28;8956;-79
2022/11/09 03:45:11;;;;;;;;;35.40;33.00;;;;;15.72;60.57;99746.81;5027604;28;8852;-80
2022/11/09 03:47:40;;;;;;;;;37.80;33.40;;;;;15.74;60.19;99745.06;5026303;28;8876;-82
2022/11/09 03:50:10;;;;;;;;;35.80;31.60;;;;;15.74;60.25;99745.91;4977446;28;8867;-80
2022/11/09 03:52:39;;;;;;;;;16.00;12.60;;;;;15.75;60.49;99738.94;4961798;28;8839;-80
2022/11/09 03:55:08;;;;;;;;;43.20;34.80;;;;;15.74;60.16;99735.41;5040684;28;8857;-82
2022/11/09 03:57:38;;;;;;;;;47.40;38.00;;;;;15.67;60.04;99736.41;5027826;28;8902;-81
2022/11/09 04:00:08;;;;;;;;;39.20;31.80;;;;;15.59;60.48;99733.91;4993979;28;8852;-82
2022/11/09 04:02:39;;;;;;;;;40.00;33.80;;;;;15.48;60.88;99722.72;5030975;28;8863;-80
2022/11/09 04:05:10;;;;;;;;;39.40;35.60;;;;;15.52;60.48;99729.66;5034264;28;8875;-81
2022/11/09 04:07:38;;;;;;;;;50.50;42.25;;;;;15.49;60.42;99731.47;5043183;28;8860;-82
2022/11/09 04:10:08;;;;;;;;;42.50;37.00;;;;;15.53;60.15;99722.63;5039064;28;8883;-82
2022/11/09 04:12:38;;;;;;;;;40.50;34.75;;;;;15.58;59.91;99720.78;5036314;28;8975;-82
2022/11/09 04:15:07;;;;;;;;;43.25;36.25;;;;;15.54;60.21;99722.63;5031841;28;8859;-83
2022/11/09 04:17:36;;;;;;;;;44.50;35.25;;;;;15.64;59.67;99722.44;4997633;28;8875;-82
2022/11/09 04:20:06;;;;;;;;;41.40;36.00;;;;;15.59;59.72;99720.78;4996811;28;8855;-80
2022/11/09 04:22:35;;;;;;;;;63.75;50.25;;;;;15.60;59.90;99729.53;5012730;28;8913;-80
2022/11/09 04:25:04;;;;;;;;;51.00;42.25;;;;;15.60;59.37;99722.50;4996343;28;9569;-81
2022/11/09 04:27:33;;;;;;;;;43.80;34.80;;;;;15.53;59.47;99728.75;5012467;28;8864;-83
2022/11/09 04:30:03;;;;;;;;;34.20;31.40;;;;;15.42;59.99;99732.47;5023210;28;8830;-81
2022/11/09 04:32:31;;;;;;;;;40.00;35.80;;;;;15.42;59.95;99732.47;5026661;28;8917;-82
2022/11/09 04:35:00;;;;;;;;;34.20;29.80;;;;;15.42;59.84;99724.59;5025840;28;8925;-80
2022/11/09 04:37:28;;;;;;;;;46.60;36.80;;;;;15.35;60.30;99724.69;5009322;28;8983;-84
2022/11/09 04:39:57;;;;;;;;;42.50;36.75;;;;;15.18;61.13;99732.84;4992365;28;9037;-84
2022/11/09 04:42:25;;;;;;;;;40.60;35.80;;;;;15.21;60.70;99735.41;5008936;28;9742;-81
2022/11/09 04:44:54;;;;;;;;;37.00;33.25;;;;;15.21;60.75;99729.31;4995437;28;8859;-83
2022/11/09 04:47:24;;;;;;;;;38.20;30.40;;;;;15.23;60.86;99731.91;5043709;28;8930;-82
2022/11/09 04:49:53;;;;;;;;;47.50;36.00;;;;;15.25;60.78;99723.09;5033474;28;8944;-83
2022/11/09 04:52:21;;;;;;;;;46.75;39.25;;;;;15.31;60.47;99724.75;5050082;28;8860;-83
2022/11/09 04:54:50;;;;;;;;;49.50;41.00;;;;;15.33;60.13;99729.13;5051744;28;8939;-79
2022/11/09 04:57:18;;;;;;;;;39.20;32.80;;;;;15.38;60.01;99727.25;5060733;28;8887;-81
2022/11/09 04:59:47;;;;;;;;;38.20;34.40;;;;;15.41;59.74;99723.72;5032201;28;8957;-80
2022/11/09 05:02:15;;;;;;;;;44.80;37.40;;;;;15.40;59.54;99724.59;5048656;28;8895;-81
2022/11/09 05:04:46;;;;;;;;;46.00;38.25;;;;;15.44;59.58;99722.78;5048958;28;8836;-80
2022/11/09 05:07:14;;;;;;;;;43.25;35.50;;;;;15.48;59.56;99727.09;5039811;28;8867;-81
2022/11/09 05:09:43;;;;;;;;;30.80;28.20;;;;;15.48;59.50;99721.84;5004363;28;8867;-80
2022/11/09 05:12:12;;;;;;;;;37.50;33.50;;;;;15.48;59.65;99725.34;4981888;28;8861;-81
2022/11/09 05:14:42;;;;;;;;;55.50;43.00;;;;;15.48;59.11;99720.09;5030968;28;8860;-81
2022/11/09 05:17:10;;;;;;;;;51.75;41.75;;;;;15.45;59.38;99725.41;5030774;28;8872;-80
2022/11/09 05:19:39;;;;;;;;;50.25;40.50;;;;;15.46;59.51;99716.59;5030791;28;8954;-81
2022/11/09 05:24:51;;;;;;;;;37.40;34.00;;;;;15.30;59.77;99728.28;4972323;28;8872;-79
2022/11/09 05:27:20;;;;;;;;;42.00;36.75;;;;;15.30;60.01;99741.44;4972401;28;8865;-81
2022/11/09 05:29:48;;;;;;;;;39.40;33.60;;;;;15.29;60.03;99742.31;5007893;28;8858;-82
2022/11/09 05:32:17;;;;;;;;;38.40;33.60;;;;;15.07;60.64;99750.56;5008284;28;8870;-82
2022/11/09 05:34:46;;;;;;;;;36.00;33.50;;;;;15.12;60.33;99748.72;4975443;28;8838;-80
2022/11/09 05:37:16;;;;;;;;;43.75;36.75;;;;;15.22;60.14;99741.56;4991533;28;8896;-80
2022/11/09 05:39:45;;;;;;;;;39.60;36.00;;;;;15.25;59.89;99738.00;5008840;28;8889;-80
2022/11/09 05:42:14;;;;;;;;;48.75;40.50;;;;;15.40;59.35;99746.50;5016002;28;8981;-82
2022/11/09 05:44:42;;;;;;;;;44.00;37.75;;;;;15.49;58.79;99749.88;5010815;28;8860;-78
2022/11/09 05:47:11;;;;;;;;;48.50;39.75;;;;;15.53;58.73;99755.03;4978558;28;8843;-81
2022/11/09 05:49:39;;;;;;;;;53.00;42.75;;;;;15.38;58.72;99756.16;4994564;28;8871;-80
2022/11/09 05:52:08;;;;;;;;;42.40;38.00;;;;;15.45;58.37;99756.06;4995093;28;9013;-82
2022/11/09 05:54:38;;;;;;;;;43.00;38.25;;;;;15.20;59.12;99751.22;5011784;28;8859;-80
2022/11/09 05:57:07;;;;;;;;;48.75;39.75;;;;;15.31;58.97;99756.28;5031495;28;8863;-81
2022/11/09 05:59:35;;;;;;;;;46.00;40.50;;;;;15.36;59.02;99760.56;5001592;28;8952;-79
2022/11/09 06:02:04;;;;;;;;;49.75;40.75;;;;;15.30;59.22;99762.44;5022723;28;8880;-80
2022/11/09 06:04:33;;;;;;;;;49.75;40.75;;;;;15.39;58.35;99764.94;5034137;28;8864;-83
2022/11/09 06:07:02;;;;;;;;;57.50;44.75;;;;;15.29;58.61;99766.84;5052745;28;8919;-83
2022/11/09 06:09:31;;;;;;;;;48.75;40.00;;;;;15.32;58.82;99766.78;5039910;28;9614;-79
2022/11/09 06:12:01;;;;;;;;;58.25;46.50;;;;;15.48;58.46;99769.16;5039984;28;8872;-81
2022/11/09 06:14:29;;;;;;;;;59.75;47.00;;;;;15.24;58.95;99771.31;5039151;28;8889;-84
2022/11/09 06:16:58;;;;;;;;;54.50;44.25;;;;;15.29;58.77;99777.34;5038285;28;8883;-83
2022/11/09 06:19:27;;;;;;;;;51.50;43.25;;;;;15.36;58.61;99786.00;5040852;28;8936;-83
2022/11/09 06:21:55;;;;;;;;;56.00;46.50;;;;;15.53;57.76;99786.56;5040849;28;8920;-84
2022/11/09 06:24:24;;;;;;;;;59.00;49.00;;;;;15.60;57.89;99782.09;5053781;28;9932;-84
2022/11/09 06:26:52;;;;;;;;;51.75;43.00;;;;;15.52;57.62;99791.84;5027532;28;8868;-84
2022/11/09 06:29:23;;;;;;;;;57.75;47.25;;;;;15.11;58.98;99796.88;5047769;28;8861;-84
2022/11/09 06:31:51;;;;;;;;;59.00;48.50;;;;;15.29;58.34;99798.38;5030267;28;8877;-85
2022/11/09 06:34:20;;;;;;;;;57.25;44.75;;;;;15.03;59.39;99806.66;5031727;28;8829;-84
2022/11/09 06:36:49;;;;;;;;;54.50;41.75;;;;;15.21;58.82;99800.22;5046250;28;8941;-83
2022/11/09 06:39:18;;;;;;;;;52.75;43.75;;;;;15.31;58.24;99804.47;5047486;28;8854;-81
2022/11/09 06:41:46;;;;;;;;;63.75;51.00;;;;;15.04;59.19;99807.50;5028526;28;8891;-83
2022/11/09 06:44:15;;;;;;;;;48.75;42.00;;;;;14.84;59.96;99815.66;5041560;28;8837;-80
2022/11/09 06:46:45;;;;;;;;;45.00;40.25;;;;;14.73;60.02;99810.56;5059570;28;8881;-82
2022/11/09 06:49:14;;;;;;;;;49.75;42.25;;;;;15.14;59.39;99807.34;5046084;28;8880;-83
2022/11/09 06:51:42;;;;;;;;;53.75;44.25;;;;;15.51;58.45;99804.13;5063467;28;8918;-84
2022/11/09 06:54:11;;;;;;;;;54.25;45.25;;;;;15.58;58.02;99797.03;5030580;28;8853;-82
2022/11/09 06:56:39;;;;;;;;;53.00;42.75;;;;;15.44;57.84;99804.25;5052155;28;8865;-83
2022/11/09 06:59:08;;;;;;;;;49.00;41.25;;;;;15.67;57.59;99794.25;5045277;28;8886;-83
2022/11/09 07:01:37;;;;;;;;;50.75;40.75;;;;;15.93;56.82;99799.03;5032308;28;8858;-83
2022/11/09 07:04:07;;;;;;;;;48.25;39.75;;;;;16.08;56.31;99795.25;5027404;28;8876;-83
2022/11/09 07:06:40;;;;;;;;;51.75;42.00;;;;;16.21;56.31;99803.78;5011241;28;8917;-81
2022/11/09 07:09:09;;;;;;;;;50.50;40.50;;;;;16.38;56.07;99806.09;5010916;28;8864;-82
2022/11/09 07:11:37;;;;;;;;;53.50;43.25;;;;;16.65;55.27;99796.75;5026689;28;8875;-80
2022/11/09 07:14:06;;;;;;;;;55.00;45.50;;;;;16.73;55.40;99801.88;5028384;28;8871;-80
2022/11/09 07:16:36;;;;;;;;;43.50;37.25;;;;;16.91;54.58;99808.53;5010304;28;8883;-79
2022/11/09 07:19:05;;;;;;;;;52.25;43.50;;;;;16.95;54.42;99805.78;5026931;28;8871;-80
2022/11/09 07:21:34;;;;;;;;;54.25;45.25;;;;;17.27;54.38;99801.53;5025575;28;8860;-80
2022/11/09 07:24:03;;;;;;;;;51.25;40.25;;;;;17.45;53.75;99794.09;5012138;28;9665;-79
2022/11/09 07:26:32;;;;;;;;;48.75;41.00;;;;;17.63;53.40;99787.47;5030065;28;8962;-79
2022/11/09 07:29:01;;;;;;;;;50.25;42.75;;;;;17.85;52.91;99787.84;5030442;28;8855;-80
2022/11/09 07:31:30;;;;;;;;;57.50;47.00;;;;;18.03;52.81;99792.59;5032109;28;8974;-75
2022/11/09 07:34:03;;;;;;;;;51.25;40.50;;;;;18.15;51.88;99798.44;5033183;28;8852;-77
2022/11/09 07:36:32;;;;;;;;;40.25;34.25;;;;;18.24;51.07;99795.56;5013580;28;8871;-79
2022/11/09 07:39:02;;;;;;;;;42.40;36.40;;;;;18.44;51.50;99795.00;5064936;28;8852;-76
2022/11/09 07:41:31;;;;;;;;;41.25;35.00;;;;;18.61;51.06;99802.44;5001650;28;8872;-79
2022/11/09 07:44:02;;;;;;;;;46.00;38.50;;;;;18.77;50.86;99800.19;5022589;28;8907;-78
2022/11/09 07:46:31;;;;;;;;;36.20;34.40;;;;;18.97;50.31;99792.56;5025933;28;9065;-80
2022/11/09 07:49:00;;;;;;;;;38.00;33.40;;;;;19.02;49.80;99798.56;4996104;28;8883;-78
2022/11/09 07:51:28;;;;;;;;;41.60;34.60;;;;;19.14;49.35;99797.31;5039137;28;9063;-82
2022/11/09 07:53:57;;;;;;;;;44.25;37.00;;;;;19.04;50.10;99801.19;5051723;28;8863;-80
2022/11/09 07:56:26;;;;;;;;;46.75;38.50;;;;;19.24;49.86;99800.53;5051407;28;8856;-82
2022/11/09 07:58:55;;;;;;;;;38.00;32.80;;;;;19.22;49.35;99799.72;4980567;28;8867;-78
2022/11/09 08:01:24;;;;;;;;;37.60;32.00;;;;;19.29;49.23;99806.53;5032142;28;8852;-79
2022/11/09 08:03:53;;;;;;;;;39.20;32.60;;;;;19.30;48.71;99808.28;5031044;28;8864;-78
2022/11/09 08:06:23;;;;;;;;;40.80;33.80;;;;;19.34;48.73;99812.56;5015688;28;9621;-78
2022/11/09 08:08:53;;;;;;;;;40.00;34.25;;;;;19.40;48.25;99817.63;5031309;28;8944;-79
2022/11/09 08:11:22;;;;;;;;;48.25;40.00;;;;;19.25;48.99;99812.84;5031840;28;8946;-78
2022/11/09 08:13:52;;;;;;;;;35.60;33.00;;;;;19.41;48.72;99813.19;5030507;28;8871;-78
2022/11/09 08:16:20;;;;;;;;;36.75;31.00;;;;;19.32;48.18;99814.38;5035022;28;8913;-78
2022/11/09 08:18:50;;;;;;;;;37.25;33.50;;;;;19.53;48.47;99807.53;5031193;28;8855;-79
2022/11/09 08:21:18;;;;;;;;;26.80;25.40;;;;;19.60;48.12;99801.13;5013623;28;8917;-77
2022/11/09 08:23:47;;;;;;;;;36.00;33.00;;;;;19.65;47.76;99806.25;5032649;28;8863;-78
2022/11/09 08:26:15;;;;;;;;;42.60;33.20;;;;;19.43;48.29;99803.44;5035349;28;8867;-78
2022/11/09 08:28:44;;;;;;;;;39.75;34.00;;;;;19.55;47.51;99803.03;5019109;28;8851;-79
2022/11/09 08:31:14;;;;;;;;;40.20;33.60;;;;;19.59;47.93;99795.88;5030912;28;8859;-76
2022/11/09 08:33:43;;;;;;;;;32.20;28.00;;;;;19.66;47.20;99794.75;5037316;28;8835;-77
2022/11/09 08:36:13;;;;;;;;;31.00;27.20;;;;;19.76;46.95;99798.84;5031315;28;8898;-78
2022/11/09 08:38:43;;;;;;;;;40.60;34.80;;;;;19.92;47.14;99798.31;5030956;28;8929;-77
2022/11/09 08:41:13;;;;;;;;;37.00;33.20;;;;;19.94;46.42;99793.81;5029874;28;8871;-80
2022/11/09 08:43:42;;;;;;;;;27.20;25.00;;;;;20.01;46.58;99797.97;5030445;28;8941;-79
2022/11/09 08:46:11;;;;;;;;;35.60;33.00;;;;;20.11;46.66;99801.16;5030155;28;8863;-81
2022/11/09 08:48:41;;;;;;;;;34.60;31.00;;;;;20.14;46.46;99796.63;4992796;28;8865;-78
2022/11/09 08:51:10;;;;;;;;;37.00;33.00;;;;;20.20;46.11;99806.13;4993137;28;8900;-77
2022/11/09 08:53:38;;;;;;;;;35.00;33.00;;;;;20.09;45.99;99798.56;4992304;28;8961;-77
2022/11/09 08:56:08;;;;;;;;;36.00;32.60;;;;;20.04;47.28;99806.69;4984252;28;8881;-85
2022/11/09 08:58:37;;;;;;;;;39.60;33.80;;;;;20.11;46.01;99803.81;4975973;28;8869;-81
2022/11/09 09:01:07;;;;;;;;;39.25;34.50;;;;;20.22;46.41;99801.66;4991583;28;8898;-82
2022/11/09 09:03:45;;;;;;;;;39.50;35.25;;;;;20.32;46.92;99803.06;5007910;28;8870;-81
2022/11/09 09:06:13;;;;;;;;;36.00;33.00;;;;;20.34;46.55;99797.69;4991352;28;8878;-78
2022/11/09 09:08:42;;;;;;;;;38.80;34.20;;;;;20.36;46.76;99801.13;4992066;28;8881;-77
2022/11/09 09:11:11;;;;;;;;;38.80;33.20;;;;;20.16;46.73;99802.72;4991604;28;8873;-78
2022/11/09 09:13:40;;;;;;;;;36.80;32.60;;;;;20.24;46.81;99805.09;4991982;28;8846;-78
2022/11/09 09:16:12;;;;;;;;;40.20;33.80;;;;;20.35;46.96;99810.00;4975819;28;8884;-79
2022/11/09 09:18:41;;;;;;;;;39.00;33.00;;;;;20.00;47.55;99805.06;4994268;28;8885;-76
2022/11/09 09:21:12;;;;;;;;;38.00;33.00;;;;;20.00;46.90;99812.13;5002654;28;8892;-78
2022/11/09 09:23:41;;;;;;;;;34.80;28.60;;;;;20.18;46.94;99807.97;5035315;28;8867;-79
2022/11/09 09:26:09;;;;;;;;;35.00;32.20;;;;;20.00;46.60;99809.47;5035327;28;8978;-78
2022/11/09 09:28:39;;;;;;;;;33.80;30.00;;;;;20.16;47.09;99805.38;5034826;28;8955;-78
2022/11/09 09:31:07;;;;;;;;;35.60;32.40;;;;;20.26;46.56;99805.91;5032509;28;8864;-80
2022/11/09 09:33:39;;;;;;;;;33.40;32.00;;;;;20.22;46.26;99807.81;5040648;28;8893;-80
2022/11/09 09:36:08;;;;;;;;;40.40;32.80;;;;;20.31;46.42;99803.09;5025401;28;8889;-80
2022/11/09 09:38:38;;;;;;;;;32.00;30.20;;;;;20.28;46.21;99795.25;5040933;28;8874;-76
2022/11/09 09:41:08;;;;;;;;;38.20;32.00;;;;;20.14;46.72;99791.34;5034350;28;8937;-80
2022/11/09 09:43:41;;;;;;;;;34.60;30.60;;;;;20.23;46.50;99793.66;4984396;28;8973;-81
2022/11/09 09:46:18;;;;;;;;;32.80;30.20;;;;;20.32;46.18;99794.22;5016728;28;8967;-77
2022/11/09 09:48:52;;;;;;;;;37.20;32.80;;;;;20.20;45.88;99788.47;5032006;28;8868;-79
2022/11/09 09:51:27;;;;;;;;;30.40;29.40;;;;;20.13;45.70;99796.69;5051319;28;8837;-77
2022/11/09 09:54:06;;;;;;;;;33.00;29.60;;;;;20.31;45.79;99788.06;5052613;28;8856;-80
2022/11/09 09:56:39;;;;;;;;;31.60;30.20;;;;;20.39;46.04;99785.13;5049137;28;8930;-77
2022/11/09 09:59:18;;;;;;;;;32.20;30.20;;;;;20.41;45.98;99780.66;5051948;28;8909;-78
2022/11/09 10:01:48;;;;;;;;;35.00;31.40;;;;;20.34;45.81;99776.50;5028022;28;8880;-79
2022/11/09 10:04:20;;;;;;;;;32.60;29.20;;;;;20.33;45.84;99777.44;5010581;28;8901;-75
2022/11/09 10:07:01;;;;;;;;;33.40;30.20;;;;;20.41;46.02;99780.66;5027200;28;9953;-79
2022/11/09 10:09:50;;;;;;;;;31.60;27.20;;;;;20.50;45.46;99775.00;5010978;28;8974;-79
2022/11/09 10:12:31;;;;;;;;;33.40;30.20;;;;;20.52;44.92;99770.50;5027467;28;8914;-79
2022/11/09 10:15:11;;;;;;;;;28.20;27.20;;;;;20.68;44.74;99773.50;5014655;28;8887;-77
2022/11/09 10:17:50;;;;;;;;;28.60;27.20;;;;;20.69;44.01;99769.03;5014735;28;8860;-79
2022/11/09 10:20:40;;;;;;;;;29.00;27.20;;;;;20.89;43.55;99765.59;5011057;28;8879;-76
2022/11/09 10:23:38;;;;;;;;;30.80;29.20;;;;;21.02;44.00;99765.06;4948138;28;8992;-78
2022/11/09 10:26:18;;;;;;;;;27.20;25.00;;;;;21.05;43.57;99758.75;4901571;28;8874;-80
2022/11/09 10:28:53;;;;;;;;;27.60;25.60;;;;;21.09;42.91;99764.81;4933274;28;9493;-79
2022/11/09 10:31:44;;;;;;;;;29.60;28.00;;;;;21.16;42.84;99763.66;4929464;29;8872;-81
2022/11/09 10:34:18;;;;;;;;;23.40;22.20;;;;;21.33;43.06;99752.34;4968960;28;8879;-78
2022/11/09 10:36:54;;;;;;;;;30.20;26.40;;;;;21.35;42.82;99748.69;4986531;28;8868;-79
2022/11/09 10:39:26;;;;;;;;;32.60;30.00;;;;;21.44;42.73;99750.13;4970579;28;9711;-77
2022/11/09 10:42:15;;;;;;;;;28.20;28.00;;;;;21.54;42.79;99748.81;4971883;28;8970;-77
2022/11/09 10:45:12;;;;;;;;;32.20;30.00;;;;;21.76;41.92;99753.22;4971034;28;8895;-79
2022/11/09 10:48:02;;;;;;;;;19.40;19.00;;;;;21.72;41.81;99747.19;4970520;28;8864;-78
2022/11/09 10:50:52;;;;;;;;;30.20;28.40;;;;;21.85;41.38;99736.00;4986331;28;8910;-79
2022/11/09 10:53:40;;;;;;;;;28.60;27.60;;;;;21.99;40.72;99738.94;4945880;28;8864;-78
2022/11/09 10:56:27;;;;;;;;;26.60;25.60;;;;;22.14;40.59;99729.41;4986582;28;9007;-79
2022/11/09 10:59:43;;;;;;;;;25.40;23.20;;;;;22.42;39.69;99720.19;4952440;28;8895;-77
2022/11/09 11:02:48;;;;;;;;;28.40;26.80;;;;;22.51;39.46;99717.97;5027576;28;8860;-81
2022/11/09 11:05:36;;;;;;;;;26.00;26.00;;;;;22.61;38.82;99725.50;5027310;28;8844;-75
2022/11/09 11:08:33;;;;;;;;;28.40;26.60;;;;;22.83;38.37;99734.16;5029922;28;8890;-77
2022/11/09 11:11:23;;;;;;;;;31.40;28.00;;;;;22.92;38.52;99723.09;5002035;28;9585;-76
2022/11/09 11:14:32;;;;;;;;;27.60;26.80;;;;;23.03;37.82;99721.72;5029367;28;8958;-78
2022/11/09 11:17:27;;;;;;;;;27.20;26.60;;;;;23.12;38.05;99711.50;5027137;28;8962;-76
2022/11/09 11:20:33;;;;;;;;;24.60;23.60;;;;;23.23;38.11;99713.66;5030313;28;8957;-78
2022/11/09 11:23:22;;;;;;;;;32.20;28.40;;;;;22.94;38.00;99717.69;5034923;28;8867;-78
2022/11/09 11:26:36;;;;;;;;;27.80;26.40;;;;;23.15;37.79;99711.34;5032346;28;8911;-77
2022/11/09 11:29:33;;;;;;;;;26.20;26.20;;;;;22.98;37.85;99712.13;5048323;28;8849;-80
2022/11/09 11:32:23;;;;;;;;;31.40;31.00;;;;;22.80;39.31;99714.84;5048701;28;8979;-79
2022/11/09 11:35:15;;;;;;;;;31.60;30.20;;;;;22.95;38.79;99703.47;5046975;28;8892;-77
2022/11/09 11:38:13;;;;;;;;;40.40;35.00;;;;;22.98;38.66;99698.00;5048645;28;8849;-80
2022/11/09 11:41:15;;;;;;;;;31.60;28.40;;;;;22.98;39.01;99700.66;5048564;28;8864;-77
2022/11/09 11:44:15;;;;;;;;;32.20;29.60;;;;;22.91;38.84;99693.91;5018990;28;8865;-79
2022/11/09 11:47:10;;;;;;;;;24.20;22.40;;;;;22.85;38.90;99697.72;5048286;28;8930;-78
2022/11/09 11:50:11;;;;;;;;;27.40;26.00;;;;;22.64;39.25;99693.47;5047692;28;8877;-78
2022/11/09 11:53:13;;;;;;;;;29.00;26.80;;;;;22.69;39.27;99697.63;5046259;28;8887;-79